Terminal Aerodrome Forecast
Issued by NWS El Paso, TX

Home | Current Version | Previous Version | Text Only | Print | Product List | Glossary On
Versions: 1 2 3 4 5 6 7 8 9 10 11 12 13
000
FTUS44 KEPZ 252000 AAA
TAFELP
TAF AMD
KELP 252004Z 2520/2618 17011KT P6SM FEW120 SCT160 BKN200
     FM252200 24016G27KT P6SM FEW120 SCT250
      TEMPO 2522/2602 25020G30KT
     FM260200 25012G23KT P6SM SCT120 SCT250
     FM261100 25011G17KT P6SM VCSH SCT025 BKN040 OVC060
     FM261400 21010KT P6SM -SHRA BKN025 OVC060=

USA.gov is the U.S. government's official web portal to all federal, state and local government web resources and services.